Date,TemperatureHighF,TemperatureAvgF,TemperatureLowF,DewpointHighF,DewpointAvgF,DewpointLowF,HumidityHigh,HumidityAvg,HumidityLow,PressureMaxIn,PressureMinIn,WindSpeedMaxMPH,WindSpeedAvgMPH,GustSpeedMaxMPH,PrecipitationSumIn
2013-3-1,43,36,33,32,29,26,87,74,53,29.75,29.57,9,4,0,0.00
2013-3-2,36,32,28,26,24,23,81,72,62,29.75,29.67,7,4,0,0.00
2013-3-3,31,28,25,23,20,17,80,73,62,29.72,29.65,8,5,0,0.00
2013-3-4,37,29,25,23,20,17,76,67,54,29.85,29.71,13,7,0,0.00
2013-3-5,45,35,27,27,24,20,76,63,45,30.05,29.85,9,3,0,0.00
2013-3-6,38,35,33,34,29,26,88,78,67,30.03,29.93,12,5,0,0.00
2013-3-7,35,32,30,30,28,25,92,85,71,30.06,29.95,12,9,0,0.00
2013-3-8,38,33,29,34,28,23,93,84,59,30.18,29.97,11,6,0,0.00
2013-3-9,55,40,29,25,22,18,70,50,27,30.34,30.18,11,3,0,0.00
2013-3-10,51,37,25,32,27,21,86,70,42,30.40,30.30,3,0,0,0.00
2013-3-11,50,41,34,42,36,30,93,84,68,30.33,30.12,4,1,0,0.00
2013-3-12,51,47,39,49,45,34,94,93,87,30.12,29.68,8,2,0,0.00
2013-3-13,47,39,31,34,26,20,86,63,38,29.85,29.77,8,3,0,0.00
2013-3-14,34,29,24,27,16,11,87,60,44,29.90,29.81,11,6,0,0.00
2013-3-15,41,31,22,28,17,9,78,57,35,29.93,29.71,9,4,0,0.00
2013-3-16,37,31,27,27,20,11,87,64,35,29.91,29.74,7,2,0,0.00
2013-3-17,33,28,22,26,12,6,84,52,31,30.32,29.90,12,4,0,0.00
2013-3-18,33,26,19,25,9,3,91,51,30,30.44,30.11,2,0,0,0.00
2013-3-19,35,31,27,32,29,25,93,91,88,30.12,29.67,6,3,0,0.00
2013-3-20,40,32,25,27,19,15,86,61,39,29.84,29.76,8,3,0,0.00
2013-3-21,35,30,27,21,16,9,75,55,36,29.84,29.62,6,2,0,0.00
2013-3-22,38,30,21,22,16,9,67,57,46,29.83,29.69,6,3,0,0.00
2013-3-23,42,34,28,25,19,16,72,55,35,29.89,29.75,12,5,0,0.00
2013-3-24,43,35,28,23,20,17,68,55,43,29.91,29.73,10,3,0,0.00
2013-3-25,42,36,31,27,24,22,70,61,49,29.76,29.47,8,3,0,0.00
2013-3-26,46,38,34,29,25,20,74,59,40,29.84,29.57,11,4,0,0.00
2013-3-27,50,40,30,27,22,19,70,52,33,29.93,29.83,13,4,0,0.00
2013-3-28,46,40,34,34,30,25,84,67,52,30.08,29.92,8,4,0,0.00
2013-3-29,53,43,35,32,28,26,72,57,37,30.11,30.03,8,3,0,0.00
2013-3-30,55,43,34,31,24,17,78,50,28,30.14,30.05,8,2,0,0.00
2013-3-31,54,42,30,39,25,-100,90,55,31,30.14,29.68,7,2,0,0.00